Time;durP1;ratioP1;P1;durP2;ratioP2;P2;SDS_P1;SDS_P2;PMS_P1;PMS_P2;Temp;Humidity;BMP_temperature;BMP_pressure;BME280_temperature;BME280_humidity;BME280_pressure;Samples;Min_cycle;Max_cycle;Signal;HPM_P1;HPM_P2
2021/09/17 00:00:33;;;;;;;;;7.33;5.33;;;;;;;;2779595;51;8766;-71
2021/09/17 00:03:00;;;;;;;;;5.33;4.00;;;;;;;;2779550;51;8770;-72
2021/09/17 00:05:26;;;;;;;;;4.75;4.25;;;;;;;;2779653;51;8789;-71
2021/09/17 00:07:52;;;;;;;;;5.50;5.50;;;;;;;;2779530;51;8778;-72
2021/09/17 00:10:18;;;;;;;;;4.75;4.25;;;;;;;;2779672;51;8747;-73
2021/09/17 00:12:43;;;;;;;;;4.80;4.80;;;;;;;;2779321;51;8766;-72
2021/09/17 00:15:10;;;;;;;;;7.00;6.00;;;;;;;;2779447;51;8759;-73
2021/09/17 00:17:37;;;;;;;;;6.50;5.50;;;;;;;;2779315;51;8774;-73
2021/09/17 00:20:03;;;;;;;;;4.75;4.75;;;;;;;;2779447;51;8766;-73
2021/09/17 00:22:29;;;;;;;;;4.00;4.00;;;;;;;;2779336;51;8839;-73
2021/09/17 00:24:55;;;;;;;;;8.00;3.67;;;;;;;;2779465;51;8770;-73
2021/09/17 00:27:20;;;;;;;;;4.33;3.67;;;;;;;;2779344;51;8839;-73
2021/09/17 00:29:46;;;;;;;;;5.00;4.00;;;;;;;;2779777;51;8771;-72
2021/09/17 00:32:11;;;;;;;;;5.33;4.00;;;;;;;;2779460;51;8763;-72
2021/09/17 00:34:37;;;;;;;;;2.50;2.50;;;;;;;;2779288;51;8763;-71
2021/09/17 00:37:02;;;;;;;;;4.67;3.67;;;;;;;;2779201;51;8762;-72
2021/09/17 00:39:28;;;;;;;;;5.33;5.33;;;;;;;;2778938;51;8807;-72
2021/09/17 00:41:54;;;;;;;;;3.00;3.00;;;;;;;;2779336;51;8767;-71
2021/09/17 00:44:23;;;;;;;;;4.00;4.00;;;;;;;;2779225;51;8847;-72
2021/09/17 00:46:49;;;;;;;;;4.20;4.20;;;;;;;;2779312;51;8759;-71
2021/09/17 00:49:15;;;;;;;;;4.00;4.00;;;;;;;;2779674;51;8898;-72
2021/09/17 00:51:41;;;;;;;;;4.00;4.00;;;;;;;;2779239;51;8919;-71
2021/09/17 00:54:07;;;;;;;;;5.00;3.00;;;;;;;;2779310;51;8783;-71
2021/09/17 00:56:33;;;;;;;;;7.00;4.00;;;;;;;;2779416;51;8802;-72
2021/09/17 00:58:58;;;;;;;;;3.25;2.50;;;;;;;;2779341;51;8817;-72
2021/09/17 01:01:24;;;;;;;;;5.50;3.00;;;;;;;;2779056;51;9384;-71
2021/09/17 01:03:50;;;;;;;;;5.67;5.00;;;;;;;;2779367;51;8778;-73
2021/09/17 01:06:16;;;;;;;;;6.00;6.00;;;;;;;;2779444;51;8762;-70
2021/09/17 01:08:41;;;;;;;;;4.67;3.33;;;;;;;;2779619;51;8774;-72
2021/09/17 01:11:07;;;;;;;;;5.00;3.33;;;;;;;;2779201;51;8766;-71
2021/09/17 01:13:34;;;;;;;;;8.00;4.00;;;;;;;;2779170;51;8781;-72
2021/09/17 01:16:00;;;;;;;;;5.00;5.00;;;;;;;;2779155;51;8754;-74
2021/09/17 01:18:27;;;;;;;;;6.00;5.00;;;;;;;;2779134;51;8801;-72
2021/09/17 01:20:59;;;;;;;;;5.75;4.25;;;;;;;;2779508;51;8754;-72
2021/09/17 01:23:25;;;;;;;;;7.75;5.50;;;;;;;;2779076;51;8758;-72
2021/09/17 01:25:50;;;;;;;;;4.25;3.75;;;;;;;;2779144;51;9463;-72
2021/09/17 01:28:23;;;;;;;;;4.67;4.67;;;;;;;;2778964;51;8771;-72
2021/09/17 01:30:49;;;;;;;;;4.75;4.75;;;;;;;;2779181;51;8771;-71
2021/09/17 01:33:15;;;;;;;;;8.33;6.00;;;;;;;;2778652;51;8762;-73
2021/09/17 01:35:40;;;;;;;;;7.33;5.00;;;;;;;;2778854;51;8763;-73
2021/09/17 01:38:06;;;;;;;;;8.33;6.00;;;;;;;;2779381;51;8798;-73
2021/09/17 01:40:31;;;;;;;;;6.67;5.67;;;;;;;;2779185;51;8776;-73
2021/09/17 01:42:57;;;;;;;;;8.00;8.00;;;;;;;;2779346;51;8771;-72
2021/09/17 01:45:23;;;;;;;;;6.00;5.33;;;;;;;;2779401;51;8767;-73
2021/09/17 01:47:49;;;;;;;;;8.50;7.00;;;;;;;;2779410;51;8759;-72
2021/09/17 01:50:15;;;;;;;;;5.33;5.33;;;;;;;;2779145;51;8777;-73
2021/09/17 01:52:41;;;;;;;;;9.33;5.33;;;;;;;;2779111;51;8770;-72
2021/09/17 01:55:07;;;;;;;;;6.50;4.75;;;;;;;;2779985;51;8875;-73
2021/09/17 01:57:32;;;;;;;;;6.00;6.00;;;;;;;;2779806;51;8871;-72
2021/09/17 01:59:58;;;;;;;;;6.67;5.00;;;;;;;;2780241;51;8908;-72
2021/09/17 02:02:24;;;;;;;;;4.00;4.00;;;;;;;;2780070;51;8762;-72
2021/09/17 02:04:50;;;;;;;;;7.00;5.00;;;;;;;;2779843;51;8773;-71
2021/09/17 02:07:15;;;;;;;;;5.00;4.00;;;;;;;;2779815;51;8767;-72
2021/09/17 02:09:41;;;;;;;;;4.67;4.33;;;;;;;;2779824;51;8839;-73
2021/09/17 02:12:07;;;;;;;;;3.75;3.50;;;;;;;;2780312;51;8769;-72
2021/09/17 02:14:33;;;;;;;;;7.33;5.33;;;;;;;;2780165;51;8879;-72
2021/09/17 02:16:58;;;;;;;;;7.00;6.33;;;;;;;;2779959;51;10633;-72
2021/09/17 02:19:24;;;;;;;;;4.33;4.33;;;;;;;;2779738;51;8775;-71
2021/09/17 02:21:52;;;;;;;;;6.00;6.00;;;;;;;;2780344;51;8793;-72
2021/09/17 02:24:17;;;;;;;;;6.50;5.50;;;;;;;;2780308;51;8771;-71
2021/09/17 02:26:43;;;;;;;;;5.00;3.67;;;;;;;;2780283;51;8774;-72
2021/09/17 02:29:09;;;;;;;;;7.67;7.00;;;;;;;;2779912;51;8763;-72
2021/09/17 02:31:34;;;;;;;;;9.33;8.00;;;;;;;;2779784;51;8810;-73
2021/09/17 02:34:00;;;;;;;;;8.00;6.67;;;;;;;;2780053;51;8884;-71
2021/09/17 02:36:26;;;;;;;;;5.00;5.00;;;;;;;;2779699;51;8806;-72
2021/09/17 02:38:51;;;;;;;;;5.00;5.00;;;;;;;;2779690;51;8775;-72
2021/09/17 02:41:17;;;;;;;;;5.67;5.67;;;;;;;;2779464;51;8860;-72
2021/09/17 02:43:44;;;;;;;;;3.67;3.67;;;;;;;;2779868;51;8786;-73
2021/09/17 02:46:10;;;;;;;;;6.50;5.50;;;;;;;;2780267;51;8786;-73
2021/09/17 02:48:35;;;;;;;;;6.75;5.25;;;;;;;;2779745;51;8885;-73
2021/09/17 02:51:01;;;;;;;;;6.00;5.00;;;;;;;;2779453;51;8775;-74
2021/09/17 02:53:27;;;;;;;;;6.33;5.67;;;;;;;;2779355;51;8785;-73
2021/09/17 02:55:52;;;;;;;;;7.33;7.00;;;;;;;;2779714;51;8758;-73
2021/09/17 02:58:18;;;;;;;;;5.00;5.00;;;;;;;;2779835;51;8798;-74
2021/09/17 03:00:44;;;;;;;;;5.00;4.67;;;;;;;;2779764;51;8782;-74
2021/09/17 03:03:10;;;;;;;;;6.50;4.50;;;;;;;;2780042;51;8849;-74
2021/09/17 03:05:36;;;;;;;;;4.00;4.00;;;;;;;;2779743;51;8893;-74
2021/09/17 03:08:01;;;;;;;;;3.33;3.00;;;;;;;;2779412;51;10399;-74
2021/09/17 03:10:27;;;;;;;;;4.67;4.67;;;;;;;;2779500;51;11523;-74
2021/09/17 03:12:53;;;;;;;;;5.67;4.33;;;;;;;;2779571;51;8762;-74
2021/09/17 03:15:18;;;;;;;;;7.33;4.00;;;;;;;;2779506;51;8897;-73
2021/09/17 03:17:44;;;;;;;;;3.67;3.67;;;;;;;;2780087;51;9439;-74
2021/09/17 03:20:10;;;;;;;;;4.00;4.00;;;;;;;;2779999;51;8771;-75
2021/09/17 03:22:35;;;;;;;;;5.25;4.25;;;;;;;;2780228;51;8770;-73
2021/09/17 03:25:01;;;;;;;;;4.00;3.00;;;;;;;;2779942;51;8784;-74
2021/09/17 03:27:27;;;;;;;;;8.00;6.00;;;;;;;;2780073;51;8770;-75
2021/09/17 03:29:52;;;;;;;;;4.67;3.67;;;;;;;;2779668;51;8778;-74
2021/09/17 03:32:18;;;;;;;;;6.33;4.00;;;;;;;;2780004;51;8751;-75
2021/09/17 03:34:45;;;;;;;;;7.00;4.67;;;;;;;;2779461;51;8966;-73
2021/09/17 03:37:12;;;;;;;;;5.50;5.50;;;;;;;;2779498;51;8759;-76
2021/09/17 03:39:37;;;;;;;;;4.00;4.00;;;;;;;;2779476;51;8862;-74
2021/09/17 03:42:03;;;;;;;;;5.33;5.33;;;;;;;;2779453;51;8771;-75
2021/09/17 03:44:29;;;;;;;;;5.67;5.67;;;;;;;;2779444;51;8758;-75
2021/09/17 03:46:54;;;;;;;;;4.00;4.00;;;;;;;;2779416;51;8766;-77
2021/09/17 03:49:20;;;;;;;;;4.33;3.00;;;;;;;;2779837;51;8766;-74
2021/09/17 03:51:46;;;;;;;;;4.25;3.00;;;;;;;;2779789;51;8766;-75
2021/09/17 03:54:11;;;;;;;;;5.33;4.33;;;;;;;;2776523;51;8779;-74
2021/09/17 03:56:37;;;;;;;;;5.67;5.00;;;;;;;;2773997;51;8890;-73
2021/09/17 03:59:02;;;;;;;;;3.33;3.33;;;;;;;;2779298;51;9439;-75
2021/09/17 04:01:28;;;;;;;;;5.67;4.67;;;;;;;;2776786;51;10643;-76
2021/09/17 04:03:54;;;;;;;;;7.00;4.67;;;;;;;;2773380;51;8765;-74
2021/09/17 04:06:19;;;;;;;;;5.33;4.33;;;;;;;;2773377;51;8761;-76
2021/09/17 04:08:45;;;;;;;;;6.00;6.00;;;;;;;;2773569;51;8761;-81
2021/09/17 04:11:10;;;;;;;;;8.00;4.33;;;;;;;;2777688;51;8763;-78
2021/09/17 04:13:36;;;;;;;;;4.67;4.67;;;;;;;;2779360;51;8783;-78
2021/09/17 04:16:02;;;;;;;;;6.67;5.67;;;;;;;;2778798;51;8758;-72
2021/09/17 04:18:27;;;;;;;;;6.67;4.00;;;;;;;;2779331;51;8794;-73
2021/09/17 04:20:53;;;;;;;;;5.00;5.00;;;;;;;;2779834;51;8794;-77
2021/09/17 04:23:18;;;;;;;;;5.67;5.33;;;;;;;;2779108;51;8785;-73
2021/09/17 04:25:44;;;;;;;;;9.33;6.67;;;;;;;;2779746;51;8835;-74
2021/09/17 04:28:10;;;;;;;;;6.33;5.00;;;;;;;;2775088;51;8789;-78
2021/09/17 04:30:36;;;;;;;;;6.25;5.00;;;;;;;;2772801;51;8794;-73
2021/09/17 04:33:01;;;;;;;;;3.00;3.00;;;;;;;;2773152;51;8784;-73
2021/09/17 04:35:27;;;;;;;;;10.00;5.33;;;;;;;;2773178;51;8757;-79
2021/09/17 04:37:59;;;;;;;;;6.00;5.67;;;;;;;;2773544;51;8817;-82
2021/09/17 04:40:25;;;;;;;;;7.50;5.25;;;;;;;;2773625;51;8749;-75
2021/09/17 04:42:52;;;;;;;;;6.50;6.00;;;;;;;;2773613;51;8777;-71
2021/09/17 04:45:17;;;;;;;;;5.25;5.25;;;;;;;;2773252;51;9484;-80
2021/09/17 04:47:43;;;;;;;;;3.33;3.33;;;;;;;;2773280;51;8789;-77
2021/09/17 04:50:09;;;;;;;;;6.33;5.00;;;;;;;;2772805;51;8790;-76
2021/09/17 04:52:36;;;;;;;;;6.20;5.00;;;;;;;;2773498;51;8882;-78
2021/09/17 04:55:03;;;;;;;;;6.60;5.00;;;;;;;;2773173;51;8797;-76
2021/09/17 04:57:29;;;;;;;;;5.00;5.00;;;;;;;;2773350;51;8765;-75
2021/09/17 04:59:55;;;;;;;;;6.60;6.00;;;;;;;;2773303;51;8765;-84
2021/09/17 05:02:21;;;;;;;;;6.00;4.80;;;;;;;;2777362;51;8852;-79
2021/09/17 05:04:46;;;;;;;;;6.00;6.00;;;;;;;;2779395;51;8762;-76
2021/09/17 05:07:12;;;;;;;;;5.75;4.00;;;;;;;;2779289;51;8783;-74
2021/09/17 05:09:38;;;;;;;;;5.50;4.00;;;;;;;;2779469;51;8861;-78
2021/09/17 05:12:04;;;;;;;;;7.00;6.00;;;;;;;;2779125;51;8867;-81
2021/09/17 05:14:30;;;;;;;;;7.80;7.20;;;;;;;;2779123;51;9434;-80
2021/09/17 05:16:55;;;;;;;;;9.33;8.00;;;;;;;;2779718;51;8762;-75
2021/09/17 05:19:23;;;;;;;;;8.00;6.25;;;;;;;;2779145;51;8794;-71
2021/09/17 05:21:52;;;;;;;;;7.40;5.80;;;;;;;;2779306;51;9384;-72
2021/09/17 05:24:18;;;;;;;;;8.60;7.60;;;;;;;;2779066;51;8771;-74
2021/09/17 05:26:44;;;;;;;;;4.75;4.75;;;;;;;;2779004;51;8782;-75
2021/09/17 05:29:09;;;;;;;;;8.75;5.50;;;;;;;;2778685;51;9415;-74
2021/09/17 05:31:35;;;;;;;;;8.00;5.00;;;;;;;;2779241;51;8755;-74
2021/09/17 05:34:01;;;;;;;;;7.25;5.50;;;;;;;;2779018;51;8771;-73
2021/09/17 05:36:26;;;;;;;;;9.50;5.00;;;;;;;;2779125;51;8759;-75
2021/09/17 05:38:52;;;;;;;;;5.50;4.75;;;;;;;;2779140;51;8782;-75
2021/09/17 05:41:17;;;;;;;;;5.00;4.75;;;;;;;;2778864;51;8755;-77
2021/09/17 05:43:43;;;;;;;;;7.00;6.00;;;;;;;;2778875;51;9427;-74
2021/09/17 05:46:09;;;;;;;;;6.50;5.50;;;;;;;;2779297;51;8844;-75
2021/09/17 05:48:34;;;;;;;;;6.50;5.25;;;;;;;;2779209;51;8771;-75
2021/09/17 05:51:00;;;;;;;;;4.75;4.75;;;;;;;;2779094;51;8759;-76
2021/09/17 05:53:25;;;;;;;;;5.75;5.75;;;;;;;;2774743;51;8763;-74
2021/09/17 05:55:51;;;;;;;;;8.00;6.25;;;;;;;;2774918;51;8890;-76
2021/09/17 05:58:17;;;;;;;;;6.25;4.50;;;;;;;;2775231;51;9545;-73
2021/09/17 06:00:42;;;;;;;;;6.25;6.25;;;;;;;;2775180;51;8907;-76
2021/09/17 06:03:08;;;;;;;;;7.50;4.75;;;;;;;;2774972;51;8773;-77
2021/09/17 06:05:34;;;;;;;;;4.40;3.80;;;;;;;;2774569;51;8765;-76
2021/09/17 06:07:59;;;;;;;;;7.75;5.75;;;;;;;;2775148;51;8811;-75
2021/09/17 06:10:25;;;;;;;;;6.50;5.00;;;;;;;;2774700;51;8766;-79
2021/09/17 06:12:51;;;;;;;;;3.75;3.75;;;;;;;;2774027;51;8763;-74
2021/09/17 06:15:17;;;;;;;;;6.00;4.75;;;;;;;;2775101;51;8859;-76
2021/09/17 06:17:43;;;;;;;;;4.60;4.60;;;;;;;;2776006;51;8888;-71
2021/09/17 06:20:09;;;;;;;;;4.00;4.00;;;;;;;;2774814;51;8774;-71
2021/09/17 06:22:35;;;;;;;;;3.00;2.00;;;;;;;;2774610;51;8859;-71
2021/09/17 06:25:01;;;;;;;;;8.20;5.40;;;;;;;;2774741;51;8766;-68
2021/09/17 06:27:27;;;;;;;;;6.25;3.50;;;;;;;;2774755;51;8765;-67
2021/09/17 06:29:52;;;;;;;;;6.25;4.75;;;;;;;;2774740;51;8797;-68
2021/09/17 06:32:18;;;;;;;;;6.25;4.00;;;;;;;;2774736;51;8791;-70
2021/09/17 06:34:43;;;;;;;;;5.50;4.75;;;;;;;;2774200;51;8875;-69
2021/09/17 06:37:09;;;;;;;;;7.75;5.50;;;;;;;;2774391;51;8774;-67
2021/09/17 06:39:35;;;;;;;;;7.25;5.00;;;;;;;;2774586;51;8783;-64
2021/09/17 06:42:01;;;;;;;;;6.50;4.00;;;;;;;;2775676;51;8872;-64
2021/09/17 06:44:26;;;;;;;;;5.00;4.00;;;;;;;;2775782;51;11378;-67
2021/09/17 06:46:52;;;;;;;;;6.00;6.00;;;;;;;;2778228;51;9645;-70
2021/09/17 06:49:18;;;;;;;;;8.00;7.00;;;;;;;;2779830;51;9387;-69
2021/09/17 06:51:43;;;;;;;;;6.00;6.00;;;;;;;;2779403;51;9486;-70
2021/09/17 06:54:09;;;;;;;;;5.50;4.50;;;;;;;;2779632;51;8802;-65
2021/09/17 06:56:34;;;;;;;;;5.00;5.00;;;;;;;;2779605;51;8774;-68
2021/09/17 06:59:00;;;;;;;;;8.50;5.75;;;;;;;;2779513;51;8808;-67
2021/09/17 07:01:26;;;;;;;;;7.25;4.00;;;;;;;;2777606;51;8769;-67
2021/09/17 07:03:51;;;;;;;;;6.50;4.75;;;;;;;;2774273;51;8769;-68
2021/09/17 07:06:17;;;;;;;;;4.60;4.60;;;;;;;;2773471;51;8777;-67
2021/09/17 07:08:43;;;;;;;;;8.75;8.25;;;;;;;;2773995;51;8811;-67
2021/09/17 07:11:08;;;;;;;;;6.00;6.00;;;;;;;;2773721;51;8796;-65
2021/09/17 07:13:34;;;;;;;;;7.00;6.25;;;;;;;;2773633;51;8784;-68
2021/09/17 07:16:00;;;;;;;;;6.75;6.75;;;;;;;;2773341;51;9495;-67
2021/09/17 07:18:25;;;;;;;;;7.50;7.50;;;;;;;;2773487;51;8939;-67
2021/09/17 07:20:51;;;;;;;;;6.50;5.75;;;;;;;;2773806;51;8781;-67
2021/09/17 07:23:17;;;;;;;;;8.00;8.00;;;;;;;;2773255;51;11428;-67
2021/09/17 07:25:43;;;;;;;;;10.60;8.60;;;;;;;;2773451;51;8769;-67
2021/09/17 07:28:08;;;;;;;;;8.67;8.33;;;;;;;;2774194;51;8880;-67
2021/09/17 07:30:34;;;;;;;;;9.67;8.33;;;;;;;;2773817;51;8780;-63
2021/09/17 07:33:00;;;;;;;;;14.33;11.67;;;;;;;;2773922;51;8761;-66
2021/09/17 07:35:25;;;;;;;;;12.00;10.00;;;;;;;;2773330;51;9570;-64
2021/09/17 07:37:51;;;;;;;;;12.33;12.33;;;;;;;;2773557;51;8785;-65
2021/09/17 07:40:17;;;;;;;;;15.33;14.00;;;;;;;;2773647;51;8761;-65
2021/09/17 07:42:44;;;;;;;;;13.75;10.75;;;;;;;;2773232;51;8908;-66
2021/09/17 07:45:10;;;;;;;;;10.25;10.00;;;;;;;;2773287;51;8863;-65
2021/09/17 07:47:36;;;;;;;;;12.20;9.60;;;;;;;;2773309;51;8776;-65
2021/09/17 07:50:02;;;;;;;;;10.00;9.00;;;;;;;;2773808;51;8785;-65
2021/09/17 07:52:28;;;;;;;;;8.00;7.20;;;;;;;;2773059;51;8784;-66
2021/09/17 07:54:53;;;;;;;;;11.00;9.00;;;;;;;;2773399;51;8792;-66
2021/09/17 07:57:19;;;;;;;;;8.50;8.50;;;;;;;;2773569;51;8765;-65
2021/09/17 07:59:44;;;;;;;;;10.00;9.00;;;;;;;;2773185;51;8785;-64
2021/09/17 08:02:10;;;;;;;;;9.00;8.00;;;;;;;;2777296;51;8770;-67
2021/09/17 08:04:38;;;;;;;;;9.25;7.50;;;;;;;;2779584;51;8770;-66
2021/09/17 08:07:07;;;;;;;;;6.20;6.20;;;;;;;;2779476;51;8774;-69
2021/09/17 08:09:33;;;;;;;;;8.80;7.40;;;;;;;;2779422;51;8787;-66
2021/09/17 08:11:58;;;;;;;;;6.75;4.75;;;;;;;;2779296;51;8778;-66
2021/09/17 08:14:24;;;;;;;;;4.50;4.50;;;;;;;;2779306;51;8758;-64
2021/09/17 08:16:50;;;;;;;;;5.75;3.00;;;;;;;;2779439;51;8793;-67
2021/09/17 08:19:16;;;;;;;;;4.33;3.33;;;;;;;;2779307;51;8797;-65
2021/09/17 08:21:43;;;;;;;;;4.00;3.00;;;;;;;;2779257;51;8774;-65
2021/09/17 08:24:13;;;;;;;;;2.25;1.25;;;;;;;;2779689;51;8778;-64
2021/09/17 08:26:40;;;;;;;;;3.50;2.00;;;;;;;;2779531;51;8888;-65
2021/09/17 08:29:05;;;;;;;;;1.75;1.00;;;;;;;;2779226;51;8766;-66
2021/09/17 08:31:31;;;;;;;;;2.00;2.00;;;;;;;;2779270;51;9391;-66
2021/09/17 08:33:56;;;;;;;;;5.00;3.00;;;;;;;;2779313;51;8758;-66
2021/09/17 08:36:22;;;;;;;;;4.00;4.00;;;;;;;;2779304;51;8778;-65
2021/09/17 08:38:48;;;;;;;;;3.50;3.50;;;;;;;;2779295;51;8803;-66
2021/09/17 08:41:14;;;;;;;;;3.00;3.00;;;;;;;;2779299;51;8774;-63
2021/09/17 08:43:43;;;;;;;;;3.00;2.00;;;;;;;;2779440;51;8792;-65
2021/09/17 08:46:11;;;;;;;;;3.80;3.80;;;;;;;;2779429;51;8770;-66
2021/09/17 08:48:37;;;;;;;;;5.20;3.60;;;;;;;;2778709;51;9554;-66
2021/09/17 08:51:03;;;;;;;;;5.00;3.75;;;;;;;;2779296;51;8771;-69
2021/09/17 08:53:28;;;;;;;;;6.00;6.00;;;;;;;;2774771;51;8787;-71
2021/09/17 08:55:54;;;;;;;;;4.75;4.75;;;;;;;;2775353;51;9474;-68
2021/09/17 08:58:20;;;;;;;;;3.00;3.00;;;;;;;;2775258;51;8778;-68
2021/09/17 09:00:45;;;;;;;;;5.50;4.00;;;;;;;;2775079;51;8785;-70
2021/09/17 09:03:26;;;;;;;;;3.00;2.00;;;;;;;;2775216;51;8761;-70
2021/09/17 09:05:51;;;;;;;;;5.40;5.00;;;;;;;;2775668;51;8769;-74
2021/09/17 09:08:20;;;;;;;;;3.25;3.25;;;;;;;;2775371;51;8782;-72
2021/09/17 09:10:47;;;;;;;;;5.40;3.80;;;;;;;;2775127;51;8774;-69
2021/09/17 09:13:15;;;;;;;;;4.80;3.00;;;;;;;;2774938;51;8908;-73
2021/09/17 09:15:40;;;;;;;;;4.40;4.40;;;;;;;;2775043;51;8773;-69
2021/09/17 09:18:12;;;;;;;;;4.00;4.00;;;;;;;;2775083;51;9561;-68
2021/09/17 09:20:45;;;;;;;;;6.20;4.80;;;;;;;;2774682;51;8755;-65
2021/09/17 09:23:22;;;;;;;;;4.20;3.80;;;;;;;;2773738;51;8772;-68
2021/09/17 09:25:59;;;;;;;;;6.00;6.00;;;;;;;;2772656;51;9426;-72
2021/09/17 09:28:32;;;;;;;;;4.00;4.00;;;;;;;;2773119;51;8770;-75
2021/09/17 09:31:04;;;;;;;;;4.20;4.20;;;;;;;;2773103;51;8779;-71
2021/09/17 09:33:31;;;;;;;;;5.60;5.60;;;;;;;;2773076;51;8868;-69
2021/09/17 09:36:07;;;;;;;;;6.00;5.80;;;;;;;;2772889;51;8801;-71
2021/09/17 09:38:40;;;;;;;;;5.60;5.00;;;;;;;;2772612;51;8800;-68
2021/09/17 09:41:06;;;;;;;;;5.80;5.80;;;;;;;;2772507;51;8772;-71
2021/09/17 09:43:33;;;;;;;;;7.20;4.00;;;;;;;;2772860;51;8765;-66
2021/09/17 09:46:17;;;;;;;;;8.40;5.60;;;;;;;;2772837;51;8769;-72
2021/09/17 09:49:03;;;;;;;;;3.20;3.20;;;;;;;;2772844;51;8780;-76
2021/09/17 09:51:30;;;;;;;;;4.60;4.60;;;;;;;;2773196;51;8789;-71
2021/09/17 09:53:57;;;;;;;;;3.40;3.00;;;;;;;;2772753;51;8919;-69
2021/09/17 09:56:23;;;;;;;;;3.40;2.00;;;;;;;;2772968;51;8859;-72
2021/09/17 09:58:49;;;;;;;;;1.25;1.00;;;;;;;;2772831;51;8769;-70
2021/09/17 10:01:16;;;;;;;;;1.50;1.50;;;;;;;;2774336;51;8747;-71
2021/09/17 10:03:43;;;;;;;;;0.50;0.00;;;;;;;;2778824;51;8758;-70
2021/09/17 10:06:09;;;;;;;;;0.75;0.75;;;;;;;;2779094;51;8885;-69
2021/09/17 10:08:35;;;;;;;;;2.25;2.25;;;;;;;;2778645;51;8782;-71
2021/09/17 10:11:01;;;;;;;;;2.80;2.80;;;;;;;;2778144;51;8885;-69
2021/09/17 10:13:27;;;;;;;;;3.00;3.00;;;;;;;;2778064;51;8900;-73
2021/09/17 10:15:53;;;;;;;;;4.40;4.00;;;;;;;;2779450;51;8859;-71
2021/09/17 10:18:19;;;;;;;;;1.00;1.00;;;;;;;;2779595;51;8770;-77
2021/09/17 10:20:45;;;;;;;;;4.60;4.60;;;;;;;;2780539;51;11052;-76
2021/09/17 10:23:28;;;;;;;;;9.80;9.40;;;;;;;;2779269;51;8885;-72
2021/09/17 10:26:13;;;;;;;;;6.40;6.40;;;;;;;;2779744;51;8762;-75
2021/09/17 10:28:57;;;;;;;;;5.00;5.00;;;;;;;;2779962;51;8770;-72
2021/09/17 10:31:23;;;;;;;;;4.60;4.60;;;;;;;;2780586;51;8790;-71
2021/09/17 10:33:48;;;;;;;;;6.00;6.00;;;;;;;;2780578;51;8779;-71
2021/09/17 10:36:14;;;;;;;;;6.00;6.00;;;;;;;;2780701;51;8782;-73
2021/09/17 10:38:40;;;;;;;;;9.00;9.00;;;;;;;;2780337;51;8786;-74
2021/09/17 10:41:07;;;;;;;;;10.60;10.60;;;;;;;;2780253;51;8766;-73
2021/09/17 10:43:32;;;;;;;;;12.00;11.25;;;;;;;;2779649;51;8771;-71
2021/09/17 10:45:59;;;;;;;;;14.00;14.00;;;;;;;;2779967;51;8785;-71
2021/09/17 10:48:28;;;;;;;;;12.25;12.00;;;;;;;;2779694;51;8787;-72
2021/09/17 10:50:58;;;;;;;;;4.40;4.40;;;;;;;;2780128;51;9363;-73
2021/09/17 10:53:39;;;;;;;;;4.00;4.00;;;;;;;;2779531;51;8754;-72
2021/09/17 10:56:06;;;;;;;;;3.00;3.00;;;;;;;;2779439;51;8919;-73
2021/09/17 10:58:33;;;;;;;;;6.00;6.00;;;;;;;;2779572;51;8797;-73
2021/09/17 11:01:06;;;;;;;;;9.60;9.60;;;;;;;;2778769;51;10345;-71
2021/09/17 11:03:49;;;;;;;;;5.60;5.60;;;;;;;;2773938;51;8854;-72
2021/09/17 11:06:18;;;;;;;;;3.40;3.40;;;;;;;;2774028;51;8769;-73
2021/09/17 11:08:47;;;;;;;;;7.00;7.00;;;;;;;;2773695;51;8898;-74
2021/09/17 11:11:31;;;;;;;;;12.00;12.00;;;;;;;;2773615;51;8781;-72
2021/09/17 11:14:01;;;;;;;;;19.00;18.00;;;;;;;;2773449;51;9016;-74
2021/09/17 11:16:27;;;;;;;;;17.75;17.75;;;;;;;;2773449;51;9750;-73
2021/09/17 11:19:07;;;;;;;;;15.00;15.00;;;;;;;;2773214;51;9950;-71
2021/09/17 11:21:33;;;;;;;;;18.00;18.00;;;;;;;;2773657;51;8793;-71
2021/09/17 11:24:00;;;;;;;;;13.75;13.75;;;;;;;;2773489;51;8862;-73
2021/09/17 11:26:26;;;;;;;;;13.25;13.25;;;;;;;;2773331;51;8805;-72
2021/09/17 11:29:03;;;;;;;;;8.00;8.00;;;;;;;;2773327;51;8949;-71
2021/09/17 11:31:34;;;;;;;;;6.00;6.00;;;;;;;;2773618;51;8805;-69
2021/09/17 11:34:01;;;;;;;;;5.20;3.00;;;;;;;;2773628;51;8846;-70
2021/09/17 11:36:35;;;;;;;;;2.40;2.00;;;;;;;;2773469;51;8776;-70
2021/09/17 11:39:12;;;;;;;;;3.40;3.40;;;;;;;;2773726;51;8781;-71
2021/09/17 11:41:39;;;;;;;;;4.60;4.60;;;;;;;;2773281;51;8812;-70
2021/09/17 11:44:04;;;;;;;;;4.00;4.00;;;;;;;;2773447;51;8882;-73
2021/09/17 11:46:31;;;;;;;;;7.00;5.50;;;;;;;;2773149;51;8777;-69
2021/09/17 11:48:56;;;;;;;;;6.60;6.60;;;;;;;;2773289;51;8784;-71
2021/09/17 11:51:22;;;;;;;;;6.25;5.00;;;;;;;;2773336;51;8783;-70
2021/09/17 11:53:47;;;;;;;;;7.00;7.00;;;;;;;;2773368;51;8818;-70
2021/09/17 11:56:13;;;;;;;;;6.75;6.50;;;;;;;;2773389;51;8777;-71
2021/09/17 11:58:43;;;;;;;;;7.50;6.50;;;;;;;;2773176;51;8772;-70
2021/09/17 12:01:17;;;;;;;;;6.60;6.60;;;;;;;;2774582;51;8856;-70
2021/09/17 12:03:43;;;;;;;;;10.75;10.75;;;;;;;;2779353;51;8759;-71
2021/09/17 12:06:10;;;;;;;;;13.67;13.67;;;;;;;;2779286;51;8786;-70
2021/09/17 12:08:36;;;;;;;;;16.33;16.33;;;;;;;;2779185;51;8782;-69
2021/09/17 12:11:02;;;;;;;;;4.00;4.00;;;;;;;;2779414;51;9022;-71
2021/09/17 12:13:28;;;;;;;;;3.60;3.60;;;;;;;;2779386;51;8869;-70
2021/09/17 12:15:57;;;;;;;;;1.40;1.20;;;;;;;;2779357;51;8779;-70
2021/09/17 12:18:27;;;;;;;;;5.00;5.00;;;;;;;;2779184;51;8796;-72
2021/09/17 12:20:57;;;;;;;;;6.20;6.20;;;;;;;;2779384;51;8770;-72
2021/09/17 12:23:33;;;;;;;;;8.40;8.40;;;;;;;;2779738;51;8774;-70
2021/09/17 12:26:12;;;;;;;;;7.40;7.40;;;;;;;;2778809;51;8762;-69
2021/09/17 12:28:40;;;;;;;;;7.80;7.80;;;;;;;;2773079;51;9986;-68
2021/09/17 12:31:05;;;;;;;;;7.20;7.20;;;;;;;;2773374;51;9574;-70
2021/09/17 12:33:35;;;;;;;;;4.50;4.50;;;;;;;;2773546;51;9400;-69
2021/09/17 12:36:11;;;;;;;;;7.00;7.00;;;;;;;;2773381;51;8771;-71
2021/09/17 12:38:37;;;;;;;;;10.40;8.00;;;;;;;;2773015;51;8763;-69
2021/09/17 12:41:08;;;;;;;;;10.00;10.00;;;;;;;;2773509;51;8758;-71
2021/09/17 12:43:33;;;;;;;;;9.25;9.25;;;;;;;;2773260;51;8763;-69
2021/09/17 12:46:17;;;;;;;;;8.25;8.25;;;;;;;;2773087;51;8766;-70
2021/09/17 12:48:45;;;;;;;;;6.80;6.80;;;;;;;;2773137;51;8767;-70
2021/09/17 12:51:16;;;;;;;;;4.40;4.40;;;;;;;;2773088;51;8860;-71
2021/09/17 12:53:42;;;;;;;;;3.80;2.80;;;;;;;;2773210;51;8767;-70
2021/09/17 12:56:08;;;;;;;;;2.75;2.75;;;;;;;;2773240;51;8793;-69
2021/09/17 12:58:35;;;;;;;;;4.20;4.20;;;;;;;;2773055;51;8796;-70
2021/09/17 13:01:02;;;;;;;;;6.80;4.80;;;;;;;;2772218;51;8782;-70
2021/09/17 13:03:28;;;;;;;;;3.00;3.00;;;;;;;;2767071;51;8781;-71
2021/09/17 13:05:55;;;;;;;;;2.50;2.50;;;;;;;;2767146;51;8843;-70
2021/09/17 13:08:21;;;;;;;;;3.00;3.00;;;;;;;;2766854;51;11380;-71
2021/09/17 13:10:48;;;;;;;;;7.00;7.00;;;;;;;;2767062;51;8777;-70
2021/09/17 13:13:13;;;;;;;;;2.00;2.00;;;;;;;;2766964;51;11430;-71
2021/09/17 13:15:40;;;;;;;;;2.75;2.75;;;;;;;;2767050;51;8911;-70
2021/09/17 13:18:08;;;;;;;;;1.00;1.00;;;;;;;;2766373;51;9909;-72
2021/09/17 13:20:35;;;;;;;;;2.00;2.00;;;;;;;;2772261;51;9628;-76
2021/09/17 13:23:00;;;;;;;;;1.80;1.00;;;;;;;;2767315;51;9812;-64
2021/09/17 13:25:27;;;;;;;;;0.67;0.67;;;;;;;;2767986;51;8908;-65
2021/09/17 13:27:54;;;;;;;;;1.00;1.00;;;;;;;;2766865;51;8789;-66
2021/09/17 13:30:21;;;;;;;;;2.00;1.75;;;;;;;;2769287;51;8781;-68
2021/09/17 13:32:47;;;;;;;;;1.00;1.00;;;;;;;;2771569;51;8778;-67
2021/09/17 13:35:13;;;;;;;;;2.00;2.00;;;;;;;;2771293;51;8781;-69
2021/09/17 13:37:39;;;;;;;;;3.00;2.25;;;;;;;;2766790;51;8781;-67
2021/09/17 13:40:06;;;;;;;;;1.67;1.00;;;;;;;;2772065;51;8864;-66
2021/09/17 13:42:32;;;;;;;;;1.00;1.00;;;;;;;;2772169;51;11516;-68
2021/09/17 13:44:57;;;;;;;;;2.67;2.67;;;;;;;;2770483;51;8758;-70
2021/09/17 13:47:23;;;;;;;;;4.00;2.33;;;;;;;;2771137;51;8783;-68
2021/09/17 13:49:49;;;;;;;;;0.67;0.00;;;;;;;;2767175;51;8789;-69
2021/09/17 13:52:14;;;;;;;;;1.67;1.67;;;;;;;;2771608;51;8779;-69
2021/09/17 13:54:40;;;;;;;;;2.67;2.67;;;;;;;;2769354;51;8794;-69
2021/09/17 13:57:06;;;;;;;;;1.00;0.00;;;;;;;;2770018;51;8789;-68
2021/09/17 13:59:32;;;;;;;;;2.75;2.00;;;;;;;;2767254;51;11639;-69
2021/09/17 14:01:58;;;;;;;;;2.33;2.00;;;;;;;;2772212;51;8855;-68
2021/09/17 14:04:24;;;;;;;;;2.00;2.00;;;;;;;;2772114;51;8971;-68
2021/09/17 14:06:50;;;;;;;;;3.25;2.00;;;;;;;;2769672;51;8786;-64
2021/09/17 14:09:16;;;;;;;;;3.25;3.00;;;;;;;;2769808;51;9488;-64
2021/09/17 14:11:42;;;;;;;;;6.00;4.33;;;;;;;;2771159;51;8782;-65
2021/09/17 14:14:08;;;;;;;;;4.00;4.00;;;;;;;;2769946;51;8783;-69
2021/09/17 14:16:34;;;;;;;;;6.50;5.25;;;;;;;;2774163;51;59260;-68
2021/09/17 14:19:00;;;;;;;;;6.40;5.00;;;;;;;;2774960;51;11432;-69
2021/09/17 14:21:25;;;;;;;;;5.00;3.00;;;;;;;;2778379;51;8878;-68
2021/09/17 14:23:51;;;;;;;;;4.50;4.00;;;;;;;;2774465;51;8804;-67
2021/09/17 14:26:17;;;;;;;;;4.50;4.50;;;;;;;;2777215;51;8791;-67
2021/09/17 14:28:42;;;;;;;;;3.00;3.00;;;;;;;;2773605;51;8789;-66
2021/09/17 14:31:08;;;;;;;;;4.50;4.00;;;;;;;;2774830;51;8798;-67
2021/09/17 14:33:33;;;;;;;;;3.75;3.75;;;;;;;;2778870;51;8794;-67
2021/09/17 14:35:59;;;;;;;;;4.25;4.25;;;;;;;;2775080;51;8823;-68
2021/09/17 14:38:25;;;;;;;;;6.00;4.25;;;;;;;;2778220;51;8817;-70
2021/09/17 14:40:50;;;;;;;;;6.25;4.00;;;;;;;;2779719;51;8873;-69
2021/09/17 14:43:16;;;;;;;;;4.00;4.00;;;;;;;;2776636;51;8785;-69
2021/09/17 14:45:42;;;;;;;;;9.00;5.50;;;;;;;;2778098;51;8798;-68
2021/09/17 14:48:07;;;;;;;;;5.00;5.00;;;;;;;;2774676;51;8786;-69
2021/09/17 14:50:33;;;;;;;;;11.25;7.00;;;;;;;;2777804;51;8774;-66
2021/09/17 14:52:58;;;;;;;;;5.75;5.75;;;;;;;;2775217;51;8885;-63